sensor_id;sensor_type;location;lat;lon;timestamp;temperature;humidity
16532;DHT22;66872;63.142;14.482;2023-05-19T00:01:57;16.00;31.20
16532;DHT22;66872;63.142;14.482;2023-05-19T00:04:25;15.90;31.20
16532;DHT22;66872;63.142;14.482;2023-05-19T00:06:53;15.90;31.20
16532;DHT22;66872;63.142;14.482;2023-05-19T00:09:19;15.90;31.20
16532;DHT22;66872;63.142;14.482;2023-05-19T00:11:45;15.90;31.20
16532;DHT22;66872;63.142;14.482;2023-05-19T00:14:11;15.90;31.30
16532;DHT22;66872;63.142;14.482;2023-05-19T00:16:37;15.90;31.40
16532;DHT22;66872;63.142;14.482;2023-05-19T00:19:04;15.90;31.40
16532;DHT22;66872;63.142;14.482;2023-05-19T00:21:30;15.90;31.40
16532;DHT22;66872;63.142;14.482;2023-05-19T00:23:57;15.90;32.00
16532;DHT22;66872;63.142;14.482;2023-05-19T00:26:23;15.90;31.50
16532;DHT22;66872;63.142;14.482;2023-05-19T00:28:49;15.90;31.50
16532;DHT22;66872;63.142;14.482;2023-05-19T00:31:15;15.90;31.50
16532;DHT22;66872;63.142;14.482;2023-05-19T00:33:41;15.90;31.50
16532;DHT22;66872;63.142;14.482;2023-05-19T00:36:07;15.80;31.50
16532;DHT22;66872;63.142;14.482;2023-05-19T00:38:34;15.80;31.50
16532;DHT22;66872;63.142;14.482;2023-05-19T00:41:01;15.80;31.60
16532;DHT22;66872;63.142;14.482;2023-05-19T00:43:27;15.80;31.60
16532;DHT22;66872;63.142;14.482;2023-05-19T00:45:55;15.80;31.60
16532;DHT22;66872;63.142;14.482;2023-05-19T00:48:21;15.80;31.70
16532;DHT22;66872;63.142;14.482;2023-05-19T00:50:47;15.80;31.70
16532;DHT22;66872;63.142;14.482;2023-05-19T00:53:13;15.80;31.70
16532;DHT22;66872;63.142;14.482;2023-05-19T00:55:41;15.80;31.70
16532;DHT22;66872;63.142;14.482;2023-05-19T00:58:09;15.80;31.80
16532;DHT22;66872;63.142;14.482;2023-05-19T01:00:35;15.80;31.80
16532;DHT22;66872;63.142;14.482;2023-05-19T01:03:02;15.80;31.80
16532;DHT22;66872;63.142;14.482;2023-05-19T01:05:38;15.80;31.90
16532;DHT22;66872;63.142;14.482;2023-05-19T01:08:06;15.80;31.90
16532;DHT22;66872;63.142;14.482;2023-05-19T01:10:32;15.80;31.90
16532;DHT22;66872;63.142;14.482;2023-05-19T01:12:58;15.80;31.90
16532;DHT22;66872;63.142;14.482;2023-05-19T01:15:26;15.70;31.80
16532;DHT22;66872;63.142;14.482;2023-05-19T01:18:03;15.70;31.80
16532;DHT22;66872;63.142;14.482;2023-05-19T01:20:46;15.70;31.80
16532;DHT22;66872;63.142;14.482;2023-05-19T01:23:40;15.70;31.90
16532;DHT22;66872;63.142;14.482;2023-05-19T01:26:15;15.70;31.90
16532;DHT22;66872;63.142;14.482;2023-05-19T01:29:06;15.70;32.00
16532;DHT22;66872;63.142;14.482;2023-05-19T01:31:35;15.70;32.00
16532;DHT22;66872;63.142;14.482;2023-05-19T01:34:02;15.70;32.00
16532;DHT22;66872;63.142;14.482;2023-05-19T01:36:31;15.70;32.00
16532;DHT22;66872;63.142;14.482;2023-05-19T01:38:58;15.70;32.10
16532;DHT22;66872;63.142;14.482;2023-05-19T01:41:25;15.70;32.10
16532;DHT22;66872;63.142;14.482;2023-05-19T01:43:51;15.70;32.10
16532;DHT22;66872;63.142;14.482;2023-05-19T01:46:18;15.70;32.20
16532;DHT22;66872;63.142;14.482;2023-05-19T01:48:45;15.70;32.20
16532;DHT22;66872;63.142;14.482;2023-05-19T01:51:11;15.70;32.80
16532;DHT22;66872;63.142;14.482;2023-05-19T01:53:37;15.70;32.20
16532;DHT22;66872;63.142;14.482;2023-05-19T01:56:03;15.70;32.20
16532;DHT22;66872;63.142;14.482;2023-05-19T01:58:54;15.70;32.20
16532;DHT22;66872;63.142;14.482;2023-05-19T02:01:41;15.70;32.20
16532;DHT22;66872;63.142;14.482;2023-05-19T02:04:43;15.70;32.20
16532;DHT22;66872;63.142;14.482;2023-05-19T02:07:43;15.70;32.20
16532;DHT22;66872;63.142;14.482;2023-05-19T02:10:21;15.70;32.30
16532;DHT22;66872;63.142;14.482;2023-05-19T02:12:50;15.70;32.30
16532;DHT22;66872;63.142;14.482;2023-05-19T02:15:24;15.60;32.20
16532;DHT22;66872;63.142;14.482;2023-05-19T02:17:54;15.60;32.20
16532;DHT22;66872;63.142;14.482;2023-05-19T02:20:20;15.70;32.30
16532;DHT22;66872;63.142;14.482;2023-05-19T02:22:49;15.70;32.20
16532;DHT22;66872;63.142;14.482;2023-05-19T02:25:14;15.70;32.20
16532;DHT22;66872;63.142;14.482;2023-05-19T02:27:43;15.70;32.20
16532;DHT22;66872;63.142;14.482;2023-05-19T02:30:09;15.70;32.80
16532;DHT22;66872;63.142;14.482;2023-05-19T02:32:35;15.70;32.20
16532;DHT22;66872;63.142;14.482;2023-05-19T02:35:01;15.70;32.20
16532;DHT22;66872;63.142;14.482;2023-05-19T02:37:27;15.70;32.20
16532;DHT22;66872;63.142;14.482;2023-05-19T02:39:54;15.70;32.20
16532;DHT22;66872;63.142;14.482;2023-05-19T02:42:20;15.70;32.20
16532;DHT22;66872;63.142;14.482;2023-05-19T02:44:45;15.70;32.20
16532;DHT22;66872;63.142;14.482;2023-05-19T02:47:12;15.70;32.10
16532;DHT22;66872;63.142;14.482;2023-05-19T02:49:38;15.70;32.10
16532;DHT22;66872;63.142;14.482;2023-05-19T02:52:05;15.70;32.00
16532;DHT22;66872;63.142;14.482;2023-05-19T02:54:32;15.70;32.00
16532;DHT22;66872;63.142;14.482;2023-05-19T02:56:58;15.80;32.10
16532;DHT22;66872;63.142;14.482;2023-05-19T02:59:24;15.80;32.10
16532;DHT22;66872;63.142;14.482;2023-05-19T03:01:54;15.80;32.00
16532;DHT22;66872;63.142;14.482;2023-05-19T03:04:19;15.80;32.10
16532;DHT22;66872;63.142;14.482;2023-05-19T03:06:45;15.80;32.00
16532;DHT22;66872;63.142;14.482;2023-05-19T03:09:12;15.80;32.00
16532;DHT22;66872;63.142;14.482;2023-05-19T03:11:40;15.90;32.00
16532;DHT22;66872;63.142;14.482;2023-05-19T03:14:06;15.90;32.00
16532;DHT22;66872;63.142;14.482;2023-05-19T03:16:35;16.00;32.00
16532;DHT22;66872;63.142;14.482;2023-05-19T03:19:00;16.10;31.90
16532;DHT22;66872;63.142;14.482;2023-05-19T03:21:26;16.20;31.70
16532;DHT22;66872;63.142;14.482;2023-05-19T03:23:52;16.10;31.50
16532;DHT22;66872;63.142;14.482;2023-05-19T03:26:19;16.20;31.40
16532;DHT22;66872;63.142;14.482;2023-05-19T03:28:44;16.20;31.50
16532;DHT22;66872;63.142;14.482;2023-05-19T03:31:10;16.30;31.40
16532;DHT22;66872;63.142;14.482;2023-05-19T03:33:35;16.40;31.30
16532;DHT22;66872;63.142;14.482;2023-05-19T03:36:01;16.40;31.20
16532;DHT22;66872;63.142;14.482;2023-05-19T03:38:28;16.40;31.10
16532;DHT22;66872;63.142;14.482;2023-05-19T03:40:54;16.50;31.10
16532;DHT22;66872;63.142;14.482;2023-05-19T03:43:19;16.50;31.00
16532;DHT22;66872;63.142;14.482;2023-05-19T03:45:45;16.50;30.90
16532;DHT22;66872;63.142;14.482;2023-05-19T03:48:11;16.50;30.80
16532;DHT22;66872;63.142;14.482;2023-05-19T03:50:37;16.50;30.80
16532;DHT22;66872;63.142;14.482;2023-05-19T03:53:02;16.60;30.90
16532;DHT22;66872;63.142;14.482;2023-05-19T03:55:28;16.50;30.80
16532;DHT22;66872;63.142;14.482;2023-05-19T03:57:54;16.60;30.90
16532;DHT22;66872;63.142;14.482;2023-05-19T04:00:21;16.70;30.80
16532;DHT22;66872;63.142;14.482;2023-05-19T04:02:47;16.70;30.70
16532;DHT22;66872;63.142;14.482;2023-05-19T04:05:13;16.70;30.60
16532;DHT22;66872;63.142;14.482;2023-05-19T04:07:39;16.70;30.60
16532;DHT22;66872;63.142;14.482;2023-05-19T04:10:06;16.70;30.60
16532;DHT22;66872;63.142;14.482;2023-05-19T04:12:32;16.70;30.60
16532;DHT22;66872;63.142;14.482;2023-05-19T04:14:58;16.70;30.70
16532;DHT22;66872;63.142;14.482;2023-05-19T04:17:24;16.80;30.70
16532;DHT22;66872;63.142;14.482;2023-05-19T04:19:51;16.90;30.70
16532;DHT22;66872;63.142;14.482;2023-05-19T04:22:17;17.00;30.50
16532;DHT22;66872;63.142;14.482;2023-05-19T04:24:43;17.00;30.30
16532;DHT22;66872;63.142;14.482;2023-05-19T04:27:08;17.00;30.30
16532;DHT22;66872;63.142;14.482;2023-05-19T04:29:39;17.00;30.20
16532;DHT22;66872;63.142;14.482;2023-05-19T04:32:05;17.00;30.20
16532;DHT22;66872;63.142;14.482;2023-05-19T04:34:32;17.00;30.20
16532;DHT22;66872;63.142;14.482;2023-05-19T04:36:59;17.00;30.30
16532;DHT22;66872;63.142;14.482;2023-05-19T04:39:25;17.10;30.40
16532;DHT22;66872;63.142;14.482;2023-05-19T04:41:50;17.20;30.40
16532;DHT22;66872;63.142;14.482;2023-05-19T04:44:18;17.40;30.10
16532;DHT22;66872;63.142;14.482;2023-05-19T04:46:44;17.60;29.90
16532;DHT22;66872;63.142;14.482;2023-05-19T04:49:10;17.90;29.70
16532;DHT22;66872;63.142;14.482;2023-05-19T04:51:39;18.00;29.30
16532;DHT22;66872;63.142;14.482;2023-05-19T04:54:10;18.30;29.10
16532;DHT22;66872;63.142;14.482;2023-05-19T04:56:36;18.40;28.90
16532;DHT22;66872;63.142;14.482;2023-05-19T04:59:02;18.60;28.70
16532;DHT22;66872;63.142;14.482;2023-05-19T05:01:28;18.80;28.50
16532;DHT22;66872;63.142;14.482;2023-05-19T05:03:55;18.90;28.30
16532;DHT22;66872;63.142;14.482;2023-05-19T05:06:23;19.10;28.20
16532;DHT22;66872;63.142;14.482;2023-05-19T05:08:49;19.20;28.00
16532;DHT22;66872;63.142;14.482;2023-05-19T05:11:15;19.30;27.90
16532;DHT22;66872;63.142;14.482;2023-05-19T05:13:41;19.40;27.70
16532;DHT22;66872;63.142;14.482;2023-05-19T05:16:08;19.60;27.50
16532;DHT22;66872;63.142;14.482;2023-05-19T05:18:34;19.70;27.30
16532;DHT22;66872;63.142;14.482;2023-05-19T05:21:01;19.80;27.10
16532;DHT22;66872;63.142;14.482;2023-05-19T05:23:27;19.90;27.10
16532;DHT22;66872;63.142;14.482;2023-05-19T05:25:54;20.00;26.50
16532;DHT22;66872;63.142;14.482;2023-05-19T05:28:19;20.10;24.80
16532;DHT22;66872;63.142;14.482;2023-05-19T05:30:45;20.20;1.00
16532;DHT22;66872;63.142;14.482;2023-05-19T05:33:11;20.30;1.00
16532;DHT22;66872;63.142;14.482;2023-05-19T05:35:37;20.40;99.90
16532;DHT22;66872;63.142;14.482;2023-05-19T05:38:02;20.40;1.00
16532;DHT22;66872;63.142;14.482;2023-05-19T05:40:28;20.50;99.90
16532;DHT22;66872;63.142;14.482;2023-05-19T05:42:55;20.60;1.00
16532;DHT22;66872;63.142;14.482;2023-05-19T05:45:24;20.80;1.00
16532;DHT22;66872;63.142;14.482;2023-05-19T05:47:51;20.80;99.90
16532;DHT22;66872;63.142;14.482;2023-05-19T05:50:17;20.90;1.00
16532;DHT22;66872;63.142;14.482;2023-05-19T05:52:46;21.00;37.90
16532;DHT22;66872;63.142;14.482;2023-05-19T05:55:13;21.00;1.00
16532;DHT22;66872;63.142;14.482;2023-05-19T05:57:39;21.10;1.00
16532;DHT22;66872;63.142;14.482;2023-05-19T06:00:08;21.20;99.90
16532;DHT22;66872;63.142;14.482;2023-05-19T06:02:44;21.20;1.00
16532;DHT22;66872;63.142;14.482;2023-05-19T06:05:13;21.30;1.00
16532;DHT22;66872;63.142;14.482;2023-05-19T06:07:39;21.30;1.00
16532;DHT22;66872;63.142;14.482;2023-05-19T06:10:06;21.40;1.00
16532;DHT22;66872;63.142;14.482;2023-05-19T06:12:32;21.40;1.00
16532;DHT22;66872;63.142;14.482;2023-05-19T06:14:58;21.50;1.00
16532;DHT22;66872;63.142;14.482;2023-05-19T06:17:24;21.60;1.90
16532;DHT22;66872;63.142;14.482;2023-05-19T06:19:49;21.60;24.30
16532;DHT22;66872;63.142;14.482;2023-05-19T06:22:15;21.70;25.10
16532;DHT22;66872;63.142;14.482;2023-05-19T06:24:41;21.80;25.20
16532;DHT22;66872;63.142;14.482;2023-05-19T06:27:06;21.80;25.20
16532;DHT22;66872;63.142;14.482;2023-05-19T06:29:32;21.90;25.10
16532;DHT22;66872;63.142;14.482;2023-05-19T06:31:58;22.00;25.10
16532;DHT22;66872;63.142;14.482;2023-05-19T06:34:24;22.10;25.00
16532;DHT22;66872;63.142;14.482;2023-05-19T06:36:50;22.10;24.80
16532;DHT22;66872;63.142;14.482;2023-05-19T06:39:15;22.20;24.70
16532;DHT22;66872;63.142;14.482;2023-05-19T06:41:41;22.30;24.40
16532;DHT22;66872;63.142;14.482;2023-05-19T06:44:06;22.40;23.80
16532;DHT22;66872;63.142;14.482;2023-05-19T06:46:35;22.50;1.00
16532;DHT22;66872;63.142;14.482;2023-05-19T06:49:01;22.50;1.00
16532;DHT22;66872;63.142;14.482;2023-05-19T06:51:27;22.50;1.00
16532;DHT22;66872;63.142;14.482;2023-05-19T06:53:52;22.50;1.00
16532;DHT22;66872;63.142;14.482;2023-05-19T06:56:18;22.60;1.00
16532;DHT22;66872;63.142;14.482;2023-05-19T06:58:44;22.60;1.00
16532;DHT22;66872;63.142;14.482;2023-05-19T07:01:10;22.60;1.00
16532;DHT22;66872;63.142;14.482;2023-05-19T07:03:36;22.60;1.00
16532;DHT22;66872;63.142;14.482;2023-05-19T07:06:01;22.60;1.00
16532;DHT22;66872;63.142;14.482;2023-05-19T07:08:27;22.60;1.00
16532;DHT22;66872;63.142;14.482;2023-05-19T07:10:53;22.50;1.00
16532;DHT22;66872;63.142;14.482;2023-05-19T07:13:22;22.60;1.00
16532;DHT22;66872;63.142;14.482;2023-05-19T07:15:47;22.50;1.00
16532;DHT22;66872;63.142;14.482;2023-05-19T07:18:14;22.50;1.00
16532;DHT22;66872;63.142;14.482;2023-05-19T07:20:40;22.50;1.00
16532;DHT22;66872;63.142;14.482;2023-05-19T07:23:05;22.50;1.00
16532;DHT22;66872;63.142;14.482;2023-05-19T07:25:31;22.50;1.00
16532;DHT22;66872;63.142;14.482;2023-05-19T07:27:57;22.50;1.00
16532;DHT22;66872;63.142;14.482;2023-05-19T07:30:23;22.40;1.00
16532;DHT22;66872;63.142;14.482;2023-05-19T07:32:49;22.40;1.00
16532;DHT22;66872;63.142;14.482;2023-05-19T07:35:15;22.40;1.00
16532;DHT22;66872;63.142;14.482;2023-05-19T07:37:40;22.40;1.00
16532;DHT22;66872;63.142;14.482;2023-05-19T07:40:06;22.30;1.00
16532;DHT22;66872;63.142;14.482;2023-05-19T07:42:33;22.30;1.00
16532;DHT22;66872;63.142;14.482;2023-05-19T07:44:58;22.30;1.00
16532;DHT22;66872;63.142;14.482;2023-05-19T07:47:24;22.20;1.00
16532;DHT22;66872;63.142;14.482;2023-05-19T07:49:50;22.20;1.00
16532;DHT22;66872;63.142;14.482;2023-05-19T07:52:15;22.20;1.00
16532;DHT22;66872;63.142;14.482;2023-05-19T07:54:43;22.10;1.00
16532;DHT22;66872;63.142;14.482;2023-05-19T07:57:08;22.10;1.00
16532;DHT22;66872;63.142;14.482;2023-05-19T07:59:34;22.10;1.00
16532;DHT22;66872;63.142;14.482;2023-05-19T08:02:00;22.10;1.00
16532;DHT22;66872;63.142;14.482;2023-05-19T08:04:25;22.00;1.00
16532;DHT22;66872;63.142;14.482;2023-05-19T08:06:52;22.00;1.00
16532;DHT22;66872;63.142;14.482;2023-05-19T08:09:18;22.00;1.00
16532;DHT22;66872;63.142;14.482;2023-05-19T08:11:44;21.90;1.00
16532;DHT22;66872;63.142;14.482;2023-05-19T08:14:11;21.90;1.00
16532;DHT22;66872;63.142;14.482;2023-05-19T08:16:37;21.90;1.00
16532;DHT22;66872;63.142;14.482;2023-05-19T08:19:03;21.80;1.00
16532;DHT22;66872;63.142;14.482;2023-05-19T08:21:30;21.80;1.00
16532;DHT22;66872;63.142;14.482;2023-05-19T08:23:59;21.80;1.00
16532;DHT22;66872;63.142;14.482;2023-05-19T08:26:26;21.70;1.00
16532;DHT22;66872;63.142;14.482;2023-05-19T08:28:52;21.70;1.00
16532;DHT22;66872;63.142;14.482;2023-05-19T08:31:18;21.70;1.00
16532;DHT22;66872;63.142;14.482;2023-05-19T08:33:44;21.70;1.00
16532;DHT22;66872;63.142;14.482;2023-05-19T08:36:10;21.70;1.00
16532;DHT22;66872;63.142;14.482;2023-05-19T08:38:37;21.70;1.00
16532;DHT22;66872;63.142;14.482;2023-05-19T08:41:03;21.60;1.00
16532;DHT22;66872;63.142;14.482;2023-05-19T08:43:30;21.60;1.00
16532;DHT22;66872;63.142;14.482;2023-05-19T08:45:58;21.60;1.00
16532;DHT22;66872;63.142;14.482;2023-05-19T08:48:26;21.60;1.00
16532;DHT22;66872;63.142;14.482;2023-05-19T08:51:19;21.50;1.00
16532;DHT22;66872;63.142;14.482;2023-05-19T08:53:50;21.50;1.00
16532;DHT22;66872;63.142;14.482;2023-05-19T08:56:22;21.50;1.00
16532;DHT22;66872;63.142;14.482;2023-05-19T08:58:50;21.40;1.00
16532;DHT22;66872;63.142;14.482;2023-05-19T09:01:16;21.50;1.00
16532;DHT22;66872;63.142;14.482;2023-05-19T09:03:45;21.40;1.00
16532;DHT22;66872;63.142;14.482;2023-05-19T09:06:14;21.40;1.00
16532;DHT22;66872;63.142;14.482;2023-05-19T09:08:41;21.40;1.00
16532;DHT22;66872;63.142;14.482;2023-05-19T09:11:08;21.30;1.00
16532;DHT22;66872;63.142;14.482;2023-05-19T09:13:34;21.30;1.00
16532;DHT22;66872;63.142;14.482;2023-05-19T09:16:00;21.30;1.00
16532;DHT22;66872;63.142;14.482;2023-05-19T09:18:26;21.30;1.00
16532;DHT22;66872;63.142;14.482;2023-05-19T09:20:57;21.20;1.00
16532;DHT22;66872;63.142;14.482;2023-05-19T09:23:28;21.20;1.00
16532;DHT22;66872;63.142;14.482;2023-05-19T09:25:55;21.20;1.00
16532;DHT22;66872;63.142;14.482;2023-05-19T09:28:32;21.10;1.00
16532;DHT22;66872;63.142;14.482;2023-05-19T09:31:06;21.20;1.00
16532;DHT22;66872;63.142;14.482;2023-05-19T09:33:39;21.10;1.00
16532;DHT22;66872;63.142;14.482;2023-05-19T09:36:07;21.10;1.00
16532;DHT22;66872;63.142;14.482;2023-05-19T09:38:35;21.10;1.00
16532;DHT22;66872;63.142;14.482;2023-05-19T09:41:01;21.10;1.00
16532;DHT22;66872;63.142;14.482;2023-05-19T09:43:28;21.10;1.00
16532;DHT22;66872;63.142;14.482;2023-05-19T09:45:58;21.10;1.00
16532;DHT22;66872;63.142;14.482;2023-05-19T09:48:25;21.00;1.00
16532;DHT22;66872;63.142;14.482;2023-05-19T09:50:52;21.00;1.00
16532;DHT22;66872;63.142;14.482;2023-05-19T09:53:20;21.00;1.00
16532;DHT22;66872;63.142;14.482;2023-05-19T10:43:52;20.00;6.50
16532;DHT22;66872;63.142;14.482;2023-05-19T10:46:23;20.20;1.00
16532;DHT22;66872;63.142;14.482;2023-05-19T10:48:50;20.20;2.00
16532;DHT22;66872;63.142;14.482;2023-05-19T10:51:16;20.10;1.00
16532;DHT22;66872;63.142;14.482;2023-05-19T10:53:42;20.10;1.00
16532;DHT22;66872;63.142;14.482;2023-05-19T10:56:11;20.10;1.00
16532;DHT22;66872;63.142;14.482;2023-05-19T10:58:53;20.10;1.80
16532;DHT22;66872;63.142;14.482;2023-05-19T11:01:19;20.00;3.00
16532;DHT22;66872;63.142;14.482;2023-05-19T11:03:53;20.00;1.00
16532;DHT22;66872;63.142;14.482;2023-05-19T11:06:26;20.00;1.00
16532;DHT22;66872;63.142;14.482;2023-05-19T11:08:57;19.90;1.00
16532;DHT22;66872;63.142;14.482;2023-05-19T11:11:23;19.90;2.10
16532;DHT22;66872;63.142;14.482;2023-05-19T11:13:53;19.80;1.00
16532;DHT22;66872;63.142;14.482;2023-05-19T11:16:28;19.80;1.00
16532;DHT22;66872;63.142;14.482;2023-05-19T11:18:58;19.80;1.00
16532;DHT22;66872;63.142;14.482;2023-05-19T11:21:23;19.80;1.00
16532;DHT22;66872;63.142;14.482;2023-05-19T11:24:01;19.80;1.00
16532;DHT22;66872;63.142;14.482;2023-05-19T11:26:39;19.70;1.00
16532;DHT22;66872;63.142;14.482;2023-05-19T11:29:06;19.70;1.00
16532;DHT22;66872;63.142;14.482;2023-05-19T11:31:33;19.70;4.70
16532;DHT22;66872;63.142;14.482;2023-05-19T11:34:01;19.70;12.80
16532;DHT22;66872;63.142;14.482;2023-05-19T11:36:27;19.70;12.80
16532;DHT22;66872;63.142;14.482;2023-05-19T11:38:53;19.60;18.90
16532;DHT22;66872;63.142;14.482;2023-05-19T11:41:19;19.60;21.20
16532;DHT22;66872;63.142;14.482;2023-05-19T11:43:46;19.60;22.80
16532;DHT22;66872;63.142;14.482;2023-05-19T11:46:12;19.60;23.70
16532;DHT22;66872;63.142;14.482;2023-05-19T11:48:38;19.60;24.40
16532;DHT22;66872;63.142;14.482;2023-05-19T11:51:05;19.60;25.60
16532;DHT22;66872;63.142;14.482;2023-05-19T11:53:31;19.60;25.60
16532;DHT22;66872;63.142;14.482;2023-05-19T11:56:02;19.60;26.60
16532;DHT22;66872;63.142;14.482;2023-05-19T11:58:29;19.50;27.00
16532;DHT22;66872;63.142;14.482;2023-05-19T12:00:54;19.50;27.30
16532;DHT22;66872;63.142;14.482;2023-05-19T12:03:21;19.50;27.50
16532;DHT22;66872;63.142;14.482;2023-05-19T12:05:50;19.50;27.70
16532;DHT22;66872;63.142;14.482;2023-05-19T12:08:18;19.50;27.90
16532;DHT22;66872;63.142;14.482;2023-05-19T12:10:47;19.50;28.00
16532;DHT22;66872;63.142;14.482;2023-05-19T12:13:16;19.50;28.20
16532;DHT22;66872;63.142;14.482;2023-05-19T12:15:41;19.50;28.30
16532;DHT22;66872;63.142;14.482;2023-05-19T12:18:07;19.50;28.30
16532;DHT22;66872;63.142;14.482;2023-05-19T12:20:33;19.50;28.40
16532;DHT22;66872;63.142;14.482;2023-05-19T12:23:02;19.50;28.50
16532;DHT22;66872;63.142;14.482;2023-05-19T12:25:28;19.50;28.50
16532;DHT22;66872;63.142;14.482;2023-05-19T12:28:01;19.40;28.50
16532;DHT22;66872;63.142;14.482;2023-05-19T12:30:28;19.40;28.60
16532;DHT22;66872;63.142;14.482;2023-05-19T12:32:55;19.40;28.60
16532;DHT22;66872;63.142;14.482;2023-05-19T12:35:30;19.40;28.60
16532;DHT22;66872;63.142;14.482;2023-05-19T12:38:03;19.40;28.70
16532;DHT22;66872;63.142;14.482;2023-05-19T12:40:32;19.40;28.70
16532;DHT22;66872;63.142;14.482;2023-05-19T12:42:58;19.40;28.80
16532;DHT22;66872;63.142;14.482;2023-05-19T12:45:24;19.40;28.80
16532;DHT22;66872;63.142;14.482;2023-05-19T12:47:52;19.40;28.80
16532;DHT22;66872;63.142;14.482;2023-05-19T12:50:18;19.40;28.80
16532;DHT22;66872;63.142;14.482;2023-05-19T12:52:46;19.40;28.90
16532;DHT22;66872;63.142;14.482;2023-05-19T12:55:13;19.40;29.40
16532;DHT22;66872;63.142;14.482;2023-05-19T12:57:47;19.40;29.00
16532;DHT22;66872;63.142;14.482;2023-05-19T13:00:14;19.40;29.00
16532;DHT22;66872;63.142;14.482;2023-05-19T13:03:03;19.30;29.00
16532;DHT22;66872;63.142;14.482;2023-05-19T13:05:31;19.40;29.10
16532;DHT22;66872;63.142;14.482;2023-05-19T13:08:07;19.40;29.10
16532;DHT22;66872;63.142;14.482;2023-05-19T13:10:35;19.40;29.10
16532;DHT22;66872;63.142;14.482;2023-05-19T13:13:01;19.30;29.10
16532;DHT22;66872;63.142;14.482;2023-05-19T13:15:29;19.30;29.10
16532;DHT22;66872;63.142;14.482;2023-05-19T13:17:56;19.30;29.20
16532;DHT22;66872;63.142;14.482;2023-05-19T13:20:22;19.30;29.20
16532;DHT22;66872;63.142;14.482;2023-05-19T13:22:48;19.30;29.20
16532;DHT22;66872;63.142;14.482;2023-05-19T13:25:15;19.30;29.20
16532;DHT22;66872;63.142;14.482;2023-05-19T13:27:41;19.30;29.30
16532;DHT22;66872;63.142;14.482;2023-05-19T13:30:07;19.30;29.30
16532;DHT22;66872;63.142;14.482;2023-05-19T13:32:33;19.30;29.30
16532;DHT22;66872;63.142;14.482;2023-05-19T13:35:00;19.20;29.20
16532;DHT22;66872;63.142;14.482;2023-05-19T13:37:26;19.30;29.40
16532;DHT22;66872;63.142;14.482;2023-05-19T13:39:52;19.30;29.40
16532;DHT22;66872;63.142;14.482;2023-05-19T13:42:18;19.30;29.40
16532;DHT22;66872;63.142;14.482;2023-05-19T13:44:46;19.30;28.20
16532;DHT22;66872;63.142;14.482;2023-05-19T13:47:12;19.30;28.20
16532;DHT22;66872;63.142;14.482;2023-05-19T13:49:38;19.30;27.70
16532;DHT22;66872;63.142;14.482;2023-05-19T13:52:04;19.40;27.80
16532;DHT22;66872;63.142;14.482;2023-05-19T13:54:31;19.50;27.70
16532;DHT22;66872;63.142;14.482;2023-05-19T13:56:58;19.50;27.60
16532;DHT22;66872;63.142;14.482;2023-05-19T13:59:27;19.50;27.80
16532;DHT22;66872;63.142;14.482;2023-05-19T14:01:52;19.50;28.00
16532;DHT22;66872;63.142;14.482;2023-05-19T14:04:18;19.50;27.40
16532;DHT22;66872;63.142;14.482;2023-05-19T14:06:45;19.50;27.30
16532;DHT22;66872;63.142;14.482;2023-05-19T14:09:10;19.50;27.00
16532;DHT22;66872;63.142;14.482;2023-05-19T14:11:36;19.60;27.10
16532;DHT22;66872;63.142;14.482;2023-05-19T14:14:02;19.70;27.40
16532;DHT22;66872;63.142;14.482;2023-05-19T14:16:28;19.70;27.50
16532;DHT22;66872;63.142;14.482;2023-05-19T14:18:55;19.70;27.70
16532;DHT22;66872;63.142;14.482;2023-05-19T14:21:21;19.70;27.90
16532;DHT22;66872;63.142;14.482;2023-05-19T14:23:46;19.70;27.80
16532;DHT22;66872;63.142;14.482;2023-05-19T14:26:12;19.70;27.80
16532;DHT22;66872;63.142;14.482;2023-05-19T14:28:38;19.80;27.60
16532;DHT22;66872;63.142;14.482;2023-05-19T14:31:03;19.80;27.80
16532;DHT22;66872;63.142;14.482;2023-05-19T14:33:30;19.80;27.20
16532;DHT22;66872;63.142;14.482;2023-05-19T14:35:56;19.80;27.30
16532;DHT22;66872;63.142;14.482;2023-05-19T14:38:25;19.80;27.20
16532;DHT22;66872;63.142;14.482;2023-05-19T14:40:51;19.80;26.80
16532;DHT22;66872;63.142;14.482;2023-05-19T14:43:16;19.80;26.60
16532;DHT22;66872;63.142;14.482;2023-05-19T14:45:42;19.80;26.70
16532;DHT22;66872;63.142;14.482;2023-05-19T14:48:08;19.80;26.60
16532;DHT22;66872;63.142;14.482;2023-05-19T14:50:36;19.90;27.30
16532;DHT22;66872;63.142;14.482;2023-05-19T14:53:02;19.90;27.70
16532;DHT22;66872;63.142;14.482;2023-05-19T14:55:27;20.00;28.00
16532;DHT22;66872;63.142;14.482;2023-05-19T14:57:53;20.00;28.20
16532;DHT22;66872;63.142;14.482;2023-05-19T15:00:19;20.10;27.90
16532;DHT22;66872;63.142;14.482;2023-05-19T15:02:45;20.10;27.40
16532;DHT22;66872;63.142;14.482;2023-05-19T15:05:11;20.10;27.30
16532;DHT22;66872;63.142;14.482;2023-05-19T15:07:36;20.20;27.40
16532;DHT22;66872;63.142;14.482;2023-05-19T15:10:03;20.20;27.10
16532;DHT22;66872;63.142;14.482;2023-05-19T15:12:29;20.20;27.00
16532;DHT22;66872;63.142;14.482;2023-05-19T15:14:54;20.20;26.80
16532;DHT22;66872;63.142;14.482;2023-05-19T15:17:20;20.20;27.00
16532;DHT22;66872;63.142;14.482;2023-05-19T15:19:46;20.20;27.00
16532;DHT22;66872;63.142;14.482;2023-05-19T15:22:12;20.30;27.00
16532;DHT22;66872;63.142;14.482;2023-05-19T15:24:37;20.20;26.70
16532;DHT22;66872;63.142;14.482;2023-05-19T15:27:03;20.30;26.60
16532;DHT22;66872;63.142;14.482;2023-05-19T15:29:29;20.30;26.90
16532;DHT22;66872;63.142;14.482;2023-05-19T15:31:55;20.40;27.20
16532;DHT22;66872;63.142;14.482;2023-05-19T15:34:21;20.40;26.90
16532;DHT22;66872;63.142;14.482;2023-05-19T15:36:47;20.50;27.10
16532;DHT22;66872;63.142;14.482;2023-05-19T15:39:12;20.60;27.20
16532;DHT22;66872;63.142;14.482;2023-05-19T15:41:38;20.60;27.10
16532;DHT22;66872;63.142;14.482;2023-05-19T15:44:04;20.60;27.00
16532;DHT22;66872;63.142;14.482;2023-05-19T15:46:31;20.60;27.00
16532;DHT22;66872;63.142;14.482;2023-05-19T15:48:57;20.60;27.10
16532;DHT22;66872;63.142;14.482;2023-05-19T15:51:23;20.50;27.20
16532;DHT22;66872;63.142;14.482;2023-05-19T15:53:48;20.50;27.30
16532;DHT22;66872;63.142;14.482;2023-05-19T15:56:14;20.50;27.40
16532;DHT22;66872;63.142;14.482;2023-05-19T15:58:40;20.60;27.40
16532;DHT22;66872;63.142;14.482;2023-05-19T16:01:06;20.60;27.50
16532;DHT22;66872;63.142;14.482;2023-05-19T16:03:32;20.60;27.50
16532;DHT22;66872;63.142;14.482;2023-05-19T16:05:58;20.60;27.60
16532;DHT22;66872;63.142;14.482;2023-05-19T16:08:25;20.60;27.60
16532;DHT22;66872;63.142;14.482;2023-05-19T16:10:50;20.60;27.70